createdAt,value
2017-11-01T00:00:33.005Z,76.42
2017-11-01T00:03:04.695Z,76.50
2017-11-01T00:05:35.575Z,76.17
2017-11-01T00:08:10.763Z,76.87
2017-11-01T00:10:41.562Z,76.73
2017-11-01T00:13:12.303Z,76.89
2017-11-01T00:15:43.616Z,77.16
2017-11-01T00:18:14.806Z,76.56
2017-11-01T00:20:53.283Z,77.03
2017-11-01T00:23:26.437Z,76.86
2017-11-01T00:26:01.512Z,76.57
2017-11-01T00:28:33.306Z,77.26
2017-11-01T00:31:06.557Z,76.94
2017-11-01T00:33:40.644Z,77.23
2017-11-01T00:36:18.120Z,78.10
2017-11-01T00:38:51.696Z,79.04
2017-11-01T00:41:23.715Z,79.96
2017-11-01T00:43:55.279Z,80.91
2017-11-01T00:46:26.278Z,80.53
2017-11-01T00:48:57.015Z,80.83
2017-11-01T00:51:27.812Z,80.95
2017-11-01T00:53:58.791Z,80.83
2017-11-01T00:56:30.046Z,81.36
2017-11-01T00:59:01.933Z,81.65
2017-11-01T01:01:32.522Z,81.35
2017-11-01T01:04:03.208Z,81.47
2017-11-01T01:06:33.853Z,81.58
2017-11-01T01:09:05.440Z,81.39
2017-11-01T01:11:37.134Z,81.57
2017-11-01T01:14:07.901Z,81.84
2017-11-01T01:16:39.731Z,82.17
2017-11-01T01:19:10.999Z,81.96
2017-11-01T01:21:41.757Z,81.52
2017-11-01T01:24:15.306Z,82.24
2017-11-01T01:26:49.175Z,82.16
2017-11-01T01:29:21.238Z,82.19
2017-11-01T01:31:53.767Z,82.27
2017-11-01T01:34:26.469Z,82.00
2017-11-01T01:36:57.611Z,82.03
2017-11-01T01:39:28.964Z,82.69
2017-11-01T01:42:02.639Z,82.79
2017-11-01T01:44:34.073Z,83.29
2017-11-01T01:47:10.620Z,83.56
2017-11-01T01:49:41.782Z,83.51
2017-11-01T01:52:12.533Z,83.47
2017-11-01T01:54:43.915Z,83.93
2017-11-01T01:57:14.599Z,84.37
2017-11-01T01:59:49.173Z,84.36
2017-11-01T02:02:20.649Z,84.69
2017-11-01T02:04:53.468Z,84.29
2017-11-01T02:07:24.600Z,84.64
2017-11-01T02:09:55.483Z,84.71
2017-11-01T02:12:28.164Z,84.43
2017-11-01T02:15:00.198Z,84.72
2017-11-01T02:17:30.840Z,84.96
2017-11-01T02:20:04.074Z,84.83
2017-11-01T02:22:35.483Z,84.69
2017-11-01T02:25:08.850Z,85.17
2017-11-01T02:27:40.269Z,85.16
2017-11-01T02:30:11.117Z,85.21
2017-11-01T02:32:43.029Z,84.47
2017-11-01T02:35:14.567Z,84.65
2017-11-01T02:37:45.173Z,84.58
2017-11-01T02:40:16.438Z,84.79
2017-11-01T02:42:49.362Z,84.66
2017-11-01T02:45:21.662Z,84.39
2017-11-01T02:47:53.190Z,84.78
2017-11-01T02:50:23.864Z,84.69
2017-11-01T02:52:55.032Z,84.43
2017-11-01T02:55:26.300Z,84.82
2017-11-01T02:57:58.854Z,84.82
2017-11-01T03:00:32.505Z,84.90
2017-11-01T03:03:03.400Z,84.44
2017-11-01T03:05:34.107Z,84.11
2017-11-01T03:08:05.363Z,83.42
2017-11-01T03:10:36.228Z,84.02
2017-11-01T03:13:07.621Z,83.39
2017-11-01T03:15:38.695Z,83.22
2017-11-01T03:18:09.390Z,83.76
2017-11-01T03:20:40.693Z,83.55
2017-11-01T03:23:11.591Z,83.71
2017-11-01T03:25:43.348Z,83.83
2017-11-01T03:28:14.592Z,83.86
2017-11-01T03:30:49.332Z,84.33
2017-11-01T03:33:20.109Z,84.33
2017-11-01T03:35:53.677Z,85.02
2017-11-01T03:38:26.479Z,84.46
2017-11-01T03:40:57.754Z,84.96
2017-11-01T03:43:29.141Z,84.77
2017-11-01T03:46:02.924Z,84.62
2017-11-01T03:48:36.087Z,84.76
2017-11-01T03:51:07.854Z,84.94
2017-11-01T03:53:39.294Z,85.15
2017-11-01T03:56:10.843Z,84.84
2017-11-01T03:58:48.550Z,85.15
2017-11-01T04:01:19.234Z,85.33
2017-11-01T04:03:55.600Z,85.02
2017-11-01T04:06:27.926Z,84.82
2017-11-01T04:08:59.913Z,85.33
2017-11-01T04:11:30.643Z,85.41
2017-11-01T04:14:01.723Z,85.32
2017-11-01T04:16:33.437Z,85.65
2017-11-01T04:19:09.560Z,85.50
2017-11-01T04:21:42.258Z,86.01
2017-11-01T04:24:13.809Z,85.99
2017-11-01T04:26:44.405Z,85.42
2017-11-01T04:29:15.552Z,85.74
2017-11-01T04:31:49.618Z,86.18
2017-11-01T04:34:21.034Z,86.45
2017-11-01T04:36:57.846Z,86.97
2017-11-01T04:39:30.564Z,87.52
2017-11-01T04:42:01.990Z,88.05
2017-11-01T04:44:34.510Z,88.60
2017-11-01T04:47:05.443Z,89.25
2017-11-01T04:49:38.652Z,89.65
2017-11-01T04:52:10.271Z,89.43
2017-11-01T04:54:41.502Z,89.17
2017-11-01T04:57:13.114Z,89.86
2017-11-01T04:59:48.273Z,90.92
2017-11-01T05:02:26.671Z,91.06
2017-11-01T05:04:58.491Z,91.48
2017-11-01T05:07:30.040Z,91.86
2017-11-01T05:10:01.230Z,91.79
2017-11-01T05:12:31.750Z,91.98
2017-11-01T05:15:02.368Z,92.17
2017-11-01T05:17:33.374Z,92.24
2017-11-01T05:20:04.766Z,92.33
2017-11-01T05:22:39.987Z,92.99
2017-11-01T05:25:17.384Z,92.73
2017-11-01T05:27:54.140Z,92.81
2017-11-01T05:30:26.106Z,93.16
2017-11-01T05:33:01.225Z,92.79
2017-11-01T05:35:32.276Z,92.97
2017-11-01T05:38:10.872Z,93.53
2017-11-01T05:40:41.722Z,93.93
2017-11-01T05:43:12.775Z,93.33
2017-11-01T05:45:50.585Z,94.47
2017-11-01T05:48:21.613Z,94.22
2017-11-01T05:50:53.614Z,93.96
2017-11-01T05:53:24.510Z,94.26
2017-11-01T05:56:06.785Z,94.30
2017-11-01T05:58:37.967Z,94.17
2017-11-01T06:01:10.426Z,94.77
2017-11-01T06:06:19.285Z,94.85
2017-11-01T06:08:52.576Z,94.64
2017-11-01T06:11:23.219Z,94.57
2017-11-01T06:13:54.817Z,94.54
2017-11-01T06:16:25.470Z,95.73
2017-11-01T06:18:56.079Z,94.80
2017-11-01T06:21:26.739Z,95.05
2017-11-01T06:24:00.419Z,94.54
2017-11-01T06:26:32.203Z,95.25
2017-11-01T06:29:03.107Z,95.62
2017-11-01T06:31:34.626Z,94.80
2017-11-01T06:34:07.600Z,94.59
2017-11-01T06:36:38.654Z,94.70
2017-11-01T06:39:09.465Z,95.24
2017-11-01T06:41:41.495Z,95.29
2017-11-01T06:44:12.277Z,94.72
2017-11-01T06:46:45.028Z,95.05
2017-11-01T06:49:16.970Z,94.65
2017-11-01T06:51:50.263Z,94.29
2017-11-01T06:54:23.810Z,94.45
2017-11-01T06:56:54.975Z,95.02
2017-11-01T06:59:25.529Z,94.75
2017-11-01T07:01:56.169Z,94.71
2017-11-01T07:04:29.479Z,94.96
2017-11-01T07:07:03.235Z,95.06
2017-11-01T07:09:51.791Z,95.21
2017-11-01T07:12:22.623Z,94.74
2017-11-01T07:14:54.063Z,94.84
2017-11-01T07:17:25.366Z,94.88
2017-11-01T07:19:56.254Z,94.97
2017-11-01T07:22:27.862Z,95.00
2017-11-01T07:25:03.880Z,95.08
2017-11-01T07:27:38.197Z,94.97
2017-11-01T07:30:14.069Z,95.51
2017-11-01T07:32:55.051Z,94.89
2017-11-01T07:35:35.001Z,94.85
2017-11-01T07:40:44.448Z,95.33
2017-11-01T07:43:16.071Z,94.44
2017-11-01T07:45:46.536Z,94.51
2017-11-01T07:48:17.672Z,95.48
2017-11-01T07:50:50.368Z,95.80
2017-11-01T07:53:21.475Z,95.52
2017-11-01T07:55:53.524Z,95.34
2017-11-01T07:58:24.552Z,95.74
2017-11-01T08:00:55.939Z,95.44
2017-11-01T08:03:33.024Z,95.48
2017-11-01T08:06:08.536Z,95.45
2017-11-01T08:08:42.484Z,95.19
2017-11-01T08:11:13.244Z,94.99
2017-11-01T08:13:47.732Z,94.73
2017-11-01T08:16:22.938Z,95.58
2017-11-01T08:18:58.690Z,95.63
2017-11-01T08:21:33.216Z,95.31
2017-11-01T08:24:06.618Z,95.62
2017-11-01T08:26:39.427Z,95.31
2017-11-01T08:29:11.984Z,95.23
2017-11-01T08:31:42.892Z,94.80
2017-11-01T08:34:14.797Z,95.57
2017-11-01T08:36:47.218Z,95.53
2017-11-01T08:39:18.449Z,95.14
2017-11-01T08:41:52.738Z,95.29
2017-11-01T08:44:26.948Z,94.96
2017-11-01T08:46:58.863Z,95.23
2017-11-01T08:49:29.931Z,95.21
2017-11-01T08:52:03.008Z,94.80
2017-11-01T08:54:33.810Z,94.91
2017-11-01T08:57:06.340Z,94.61
2017-11-01T08:59:39.076Z,94.92
2017-11-01T09:02:09.967Z,94.60
2017-11-01T09:04:42.022Z,94.00
2017-11-01T09:07:13.016Z,93.53
2017-11-01T09:09:50.217Z,93.46
2017-11-01T09:12:21.025Z,93.17
2017-11-01T09:14:54.503Z,93.26
2017-11-01T09:17:27.213Z,93.17
2017-11-01T09:19:58.598Z,93.64
2017-11-01T09:22:29.626Z,93.20
2017-11-01T09:25:00.465Z,93.11
2017-11-01T09:27:31.130Z,93.70
2017-11-01T09:30:05.025Z,93.37
2017-11-01T09:32:35.838Z,93.37
2017-11-01T09:35:10.696Z,93.41
2017-11-01T09:37:41.632Z,93.34
2017-11-01T09:40:12.429Z,93.50
2017-11-01T09:42:44.447Z,93.90
2017-11-01T09:45:15.359Z,92.88
2017-11-01T09:47:48.301Z,93.60
2017-11-01T09:50:19.616Z,93.12
2017-11-01T09:52:52.759Z,92.52
2017-11-01T09:55:23.986Z,93.10
2017-11-01T09:57:55.182Z,92.44
2017-11-01T10:00:27.064Z,92.75
2017-11-01T10:02:58.684Z,92.92
2017-11-01T10:05:30.943Z,92.75
2017-11-01T10:08:02.649Z,92.82
2017-11-01T10:10:33.357Z,92.62
2017-11-01T10:13:04.087Z,92.48
2017-11-01T10:15:35.380Z,92.07
2017-11-01T10:18:06.624Z,92.51
2017-11-01T10:20:37.867Z,92.09
2017-11-01T10:23:09.436Z,92.33
2017-11-01T10:25:40.651Z,92.18
2017-11-01T10:28:11.450Z,92.11
2017-11-01T10:30:42.302Z,91.11
2017-11-01T10:33:13.126Z,90.86
2017-11-01T10:35:44.170Z,90.65
2017-11-01T10:38:15.479Z,90.37
2017-11-01T10:40:48.313Z,91.26
2017-11-01T10:43:19.830Z,89.39
2017-11-01T10:45:52.613Z,89.51
2017-11-01T10:48:23.275Z,89.66
2017-11-01T10:50:54.586Z,89.80
2017-11-01T10:53:25.294Z,90.21
2017-11-01T10:55:56.279Z,88.99
2017-11-01T10:58:27.236Z,88.86
2017-11-01T11:00:58.744Z,88.58
2017-11-01T11:03:30.593Z,89.32
2017-11-01T11:06:02.711Z,88.64
2017-11-01T11:08:33.675Z,88.62
2017-11-01T11:11:06.306Z,88.54
2017-11-01T11:13:37.668Z,88.60
2017-11-01T11:16:10.538Z,88.43
2017-11-01T11:18:42.244Z,88.30
2017-11-01T11:21:13.087Z,88.44
2017-11-01T11:23:44.226Z,89.05
2017-11-01T11:26:15.375Z,89.21
2017-11-01T11:28:50.097Z,88.96
2017-11-01T11:31:21.102Z,89.97
2017-11-01T11:33:53.587Z,88.85
2017-11-01T11:36:24.146Z,89.63
2017-11-01T11:38:54.929Z,88.77
2017-11-01T11:41:25.940Z,88.67
2017-11-01T11:43:57.292Z,88.54
2017-11-01T11:46:28.697Z,88.98
2017-11-01T11:49:00.980Z,88.54
2017-11-01T11:51:32.932Z,88.98
2017-11-01T11:54:05.018Z,89.05
2017-11-01T11:56:35.958Z,88.69
2017-11-01T11:59:08.281Z,88.81
2017-11-01T12:01:39.606Z,89.61
2017-11-01T12:04:10.911Z,90.16
2017-11-01T12:06:42.170Z,88.93
2017-11-01T12:09:21.297Z,88.74
2017-11-01T12:11:55.247Z,88.73
2017-11-01T12:14:56.048Z,88.46
2017-11-01T12:18:04.722Z,88.50
2017-11-01T12:21:20.910Z,88.38
2017-11-01T12:29:53.408Z,87.96
2017-11-01T12:32:31.892Z,87.83
2017-11-01T12:35:18.885Z,87.65
2017-11-01T12:38:04.661Z,87.73
2017-11-01T12:40:38.683Z,86.81
2017-11-01T12:43:43.081Z,87.13
2017-11-01T12:46:20.294Z,86.77
2017-11-01T12:48:58.364Z,86.55
2017-11-01T12:51:33.362Z,86.42
2017-11-01T12:54:33.957Z,85.91
2017-11-01T12:57:06.965Z,86.83
2017-11-01T12:59:43.819Z,85.70
2017-11-01T13:02:21.223Z,85.75
2017-11-01T13:04:59.735Z,85.25
2017-11-01T13:07:32.330Z,85.84
2017-11-01T13:10:16.118Z,84.75
2017-11-01T13:12:53.077Z,85.42
2017-11-01T13:15:32.891Z,85.47
2017-11-01T13:18:10.509Z,86.81
2017-11-01T13:20:42.315Z,87.18
2017-11-01T13:23:15.074Z,86.74
2017-11-01T13:25:52.547Z,85.94
2017-11-01T13:31:56.532Z,86.03
2017-11-01T13:34:28.714Z,85.21
2017-11-01T13:37:02.548Z,85.76
2017-11-01T13:39:42.448Z,84.97
2017-11-01T13:42:30.914Z,85.14
2017-11-01T13:48:09.388Z,85.38
2017-11-01T13:50:42.197Z,85.99
2017-11-01T13:53:14.064Z,85.58
2017-11-01T13:55:45.163Z,85.40
2017-11-01T13:58:17.034Z,85.97
2017-11-01T14:00:51.350Z,85.77
2017-11-01T14:03:22.429Z,85.21
2017-11-01T14:05:54.047Z,87.00
2017-11-01T14:08:24.967Z,85.91
2017-11-01T14:10:57.264Z,86.20
2017-11-01T14:13:28.627Z,85.63
2017-11-01T14:15:59.559Z,86.47
2017-11-01T14:18:33.166Z,85.67
2017-11-01T14:21:05.299Z,85.78
2017-11-01T14:23:39.000Z,86.36
2017-11-01T14:26:12.315Z,86.65
2017-11-01T14:28:47.092Z,86.04
2017-11-01T14:31:19.860Z,85.57
2017-11-01T14:33:55.646Z,85.28
2017-11-01T14:36:27.841Z,86.00
2017-11-01T14:39:00.143Z,84.81
2017-11-01T14:41:32.080Z,85.55
2017-11-01T14:44:04.729Z,85.17
2017-11-01T14:46:36.835Z,85.06
2017-11-01T14:49:09.090Z,84.59
2017-11-01T14:51:41.524Z,84.66
2017-11-01T14:54:14.227Z,84.40
2017-11-01T14:56:46.538Z,83.73
2017-11-01T14:59:21.019Z,84.79
2017-11-01T15:01:58.896Z,84.76
2017-11-01T15:04:30.547Z,85.80
2017-11-01T15:07:03.180Z,85.20
2017-11-01T15:09:35.837Z,85.42
2017-11-01T15:12:07.719Z,85.76
2017-11-01T15:14:40.580Z,85.74
2017-11-01T15:17:25.038Z,85.98
2017-11-01T15:20:06.345Z,86.21
2017-11-01T15:22:39.717Z,86.25
2017-11-01T15:25:11.242Z,86.58
2017-11-01T15:27:50.331Z,86.43
2017-11-01T15:30:31.778Z,86.56
2017-11-01T15:33:07.423Z,86.96
2017-11-01T15:35:50.417Z,87.13
2017-11-01T15:38:26.489Z,86.70
2017-11-01T15:41:01.146Z,87.27
2017-11-01T15:43:43.761Z,87.25
2017-11-01T15:46:22.737Z,86.87
2017-11-01T15:48:57.869Z,87.12
2017-11-01T15:51:30.871Z,87.34
2017-11-01T15:54:09.915Z,87.43
2017-11-01T15:56:41.443Z,87.23
2017-11-01T15:59:39.876Z,87.45
2017-11-01T16:02:12.449Z,87.62
2017-11-01T16:04:44.107Z,87.69
2017-11-01T16:07:21.832Z,87.60
2017-11-01T16:09:59.632Z,87.99
2017-11-01T16:12:31.917Z,88.11
2017-11-01T16:15:05.681Z,88.05
2017-11-01T16:17:38.242Z,88.19
2017-11-01T16:20:12.802Z,88.38
2017-11-01T16:22:49.684Z,88.30
2017-11-01T16:25:20.803Z,88.41
2017-11-01T16:27:57.592Z,88.65
2017-11-01T16:30:30.420Z,89.14
2017-11-01T16:33:06.355Z,88.76
2017-11-01T16:35:40.045Z,89.02
2017-11-01T16:38:13.346Z,88.67
2017-11-01T16:40:49.986Z,89.13
2017-11-01T16:43:25.305Z,88.96
2017-11-01T16:45:56.563Z,89.13
2017-11-01T16:48:29.078Z,88.86
2017-11-01T16:51:00.315Z,88.82
2017-11-01T16:53:33.319Z,89.16
2017-11-01T16:56:07.855Z,88.66
2017-11-01T16:58:41.101Z,88.60
2017-11-01T17:01:12.514Z,88.56
2017-11-01T17:03:45.554Z,88.73
2017-11-01T17:06:18.500Z,88.91
2017-11-01T17:08:53.972Z,88.63
2017-11-01T17:11:27.460Z,88.85
2017-11-01T17:14:01.749Z,88.87
2017-11-01T17:16:33.808Z,89.09
2017-11-01T17:19:05.041Z,88.84
2017-11-01T17:21:36.289Z,88.98
2017-11-01T17:24:09.094Z,88.68
2017-11-01T17:26:40.696Z,89.20
2017-11-01T17:29:14.329Z,89.19
2017-11-01T17:31:55.986Z,89.31
2017-11-01T17:37:26.774Z,89.15
2017-11-01T17:42:52.511Z,89.39
2017-11-01T17:45:24.049Z,89.46
2017-11-01T17:47:56.984Z,89.68
2017-11-01T17:50:28.543Z,89.61
2017-11-01T17:52:59.981Z,89.59
2017-11-01T17:55:33.315Z,89.91
2017-11-01T17:58:07.312Z,89.59
2017-11-01T18:00:39.825Z,90.01
2017-11-01T18:03:12.663Z,89.83
2017-11-01T18:05:45.165Z,89.98
2017-11-01T18:08:17.788Z,90.47
2017-11-01T18:10:53.778Z,90.45
2017-11-01T18:13:31.623Z,90.58
2017-11-01T18:16:06.132Z,90.84
2017-11-01T18:18:37.918Z,90.91
2017-11-01T18:21:10.207Z,90.84
2017-11-01T18:23:42.294Z,90.94
2017-11-01T18:26:15.389Z,90.64
2017-11-01T18:28:49.478Z,91.43
2017-11-01T18:31:21.812Z,91.94
2017-11-01T18:33:54.807Z,90.78
2017-11-01T18:36:26.726Z,89.85
2017-11-01T18:39:00.128Z,90.03
2017-11-01T18:41:35.549Z,92.54
2017-11-01T18:44:08.377Z,93.42
2017-11-01T18:49:30.515Z,92.74
2017-11-01T18:52:19.608Z,93.01
2017-11-01T18:55:13.091Z,92.15
2017-11-01T18:57:44.222Z,91.94
2017-11-01T19:00:19.362Z,91.84
2017-11-01T19:03:01.024Z,93.31
2017-11-01T19:05:39.198Z,93.27
2017-11-01T19:08:16.126Z,94.22
2017-11-01T19:11:15.031Z,92.80
2017-11-01T19:13:47.698Z,93.83
2017-11-01T19:16:22.948Z,94.77
2017-11-01T19:18:59.483Z,93.57
2017-11-01T19:21:32.468Z,92.49
2017-11-01T19:24:03.833Z,92.03
2017-11-01T19:26:35.882Z,95.09
2017-11-01T19:32:49.730Z,94.39
2017-11-01T19:35:23.057Z,92.58
2017-11-01T19:37:54.124Z,91.36
2017-11-01T19:40:28.386Z,95.72
2017-11-01T19:42:59.563Z,92.71
2017-11-01T19:45:33.682Z,91.79
2017-11-01T19:48:06.781Z,91.28
2017-11-01T19:50:39.915Z,92.20
2017-11-01T19:58:16.172Z,91.11
2017-11-01T20:00:54.130Z,93.52
2017-11-01T20:03:26.076Z,91.40
2017-11-01T20:05:57.030Z,93.02
2017-11-01T20:08:47.661Z,93.86
2017-11-01T20:11:23.668Z,92.75
2017-11-01T20:14:33.203Z,93.35
2017-11-01T20:17:05.683Z,94.94
2017-11-01T20:19:37.149Z,96.08
2017-11-01T20:22:14.193Z,95.32
2017-11-01T20:24:52.169Z,94.24
2017-11-01T20:27:23.355Z,95.09
2017-11-01T20:29:59.646Z,95.77
2017-11-01T20:35:25.718Z,96.79
2017-11-01T20:37:57.352Z,95.94
2017-11-01T20:40:29.978Z,94.46
2017-11-01T20:43:04.142Z,95.58
2017-11-01T20:45:39.277Z,94.08
2017-11-01T20:50:59.167Z,93.41
2017-11-01T20:53:31.924Z,94.13
2017-11-01T20:56:03.679Z,94.70
2017-11-01T20:58:34.880Z,93.23
2017-11-01T21:01:06.796Z,93.39
2017-11-01T21:03:38.893Z,92.92
2017-11-01T21:06:14.438Z,94.60
2017-11-01T21:08:53.341Z,93.93
2017-11-01T21:11:29.025Z,93.97
2017-11-01T21:14:05.039Z,94.29
2017-11-01T21:16:56.982Z,94.60
2017-11-01T21:19:35.390Z,94.22
2017-11-01T21:22:26.456Z,93.91
2017-11-01T21:25:43.839Z,94.02
2017-11-01T21:28:17.445Z,93.86
2017-11-01T21:30:55.869Z,93.50
2017-11-01T21:33:40.641Z,93.46
2017-11-01T21:36:14.943Z,92.93
2017-11-01T21:38:48.550Z,92.79
2017-11-01T21:41:32.214Z,93.05
2017-11-01T21:44:07.397Z,92.33
2017-11-01T21:46:47.268Z,92.11
2017-11-01T21:49:48.757Z,92.20
2017-11-01T21:52:22.480Z,92.13
2017-11-01T21:54:54.944Z,92.25
2017-11-01T21:57:26.672Z,91.97
2017-11-01T21:59:57.843Z,91.91
2017-11-01T22:02:33.808Z,91.71
2017-11-01T22:05:07.982Z,91.77
2017-11-01T22:07:39.096Z,91.54
2017-11-01T22:10:11.875Z,91.42
2017-11-01T22:12:43.207Z,91.31
2017-11-01T22:15:14.879Z,91.20
2017-11-01T22:17:46.725Z,91.17
2017-11-01T22:20:17.717Z,91.14
2017-11-01T22:22:48.866Z,91.26
2017-11-01T22:25:23.285Z,91.03
2017-11-01T22:27:53.882Z,91.14
2017-11-01T22:30:28.085Z,91.17
2017-11-01T22:33:03.536Z,91.27
2017-11-01T22:35:35.418Z,91.48
2017-11-01T22:38:08.167Z,91.52
2017-11-01T22:43:19.487Z,91.36
2017-11-01T22:45:52.468Z,91.75
2017-11-01T22:48:23.910Z,92.15
2017-11-01T22:51:02.979Z,91.52
2017-11-01T22:53:34.690Z,91.84
2017-11-01T22:56:06.029Z,92.33
2017-11-01T22:58:37.602Z,91.96
2017-11-01T23:01:12.087Z,91.60
2017-11-01T23:03:43.342Z,91.46
2017-11-01T23:06:15.454Z,91.32
2017-11-01T23:08:50.288Z,91.15
2017-11-01T23:11:22.971Z,91.19
2017-11-01T23:13:55.149Z,91.87
2017-11-01T23:16:29.290Z,91.59
2017-11-01T23:19:02.817Z,92.32
2017-11-01T23:21:34.821Z,92.72
2017-11-01T23:24:06.473Z,92.14
2017-11-01T23:26:37.879Z,94.09
2017-11-01T23:29:11.881Z,93.81
2017-11-01T23:31:42.946Z,92.96
2017-11-01T23:34:13.527Z,94.05
2017-11-01T23:36:44.564Z,94.46
2017-11-01T23:39:15.843Z,94.22
2017-11-01T23:41:46.476Z,93.17
2017-11-01T23:44:17.411Z,93.68
2017-11-01T23:46:48.553Z,93.43
2017-11-01T23:49:19.476Z,93.09
2017-11-01T23:51:52.616Z,94.64
2017-11-01T23:54:23.604Z,96.18
2017-11-01T23:56:54.352Z,94.38
2017-11-01T23:59:25.475Z,94.69
